createdAt,value
2019-04-23T00:00:56.451Z,15.03
2019-04-23T00:03:27.154Z,15.97
2019-04-23T00:05:59.946Z,22.00
2019-04-23T00:08:35.765Z,22.87
2019-04-23T00:11:06.042Z,19.07
2019-04-23T00:13:37.390Z,20.47
2019-04-23T00:16:26.453Z,19.20
2019-04-23T00:18:42.286Z,18.37
2019-04-23T00:21:28.376Z,15.87
2019-04-23T00:24:15.772Z,12.90
2019-04-23T00:26:37.231Z,10.27
2019-04-23T00:29:08.322Z,10.03
2019-04-23T00:31:49.931Z,10.23
2019-04-23T00:34:05.350Z,9.50
2019-04-23T00:39:01.562Z,9.87
2019-04-23T00:41:44.201Z,8.80
2019-04-23T00:44:06.319Z,8.70
2019-04-23T00:46:41.908Z,8.40
2019-04-23T00:49:20.711Z,8.13
2019-04-23T00:54:22.552Z,7.80
2019-04-23T00:57:07.731Z,7.70
2019-04-23T00:59:23.241Z,7.00
2019-04-23T01:04:25.508Z,5.83
2019-04-23T01:06:58.421Z,5.83
2019-04-23T01:09:29.340Z,6.57
2019-04-23T01:11:57.892Z,6.70
2019-04-23T01:14:31.547Z,5.60
2019-04-23T01:17:08.420Z,5.67
2019-04-23T01:19:44.004Z,6.10
2019-04-23T01:21:55.792Z,5.63
2019-04-23T01:25:03.077Z,6.67
2019-04-23T01:30:27.971Z,5.90
2019-04-23T01:33:03.324Z,5.80
2019-04-23T01:38:09.389Z,6.47
2019-04-23T01:40:45.877Z,6.30
2019-04-23T01:43:10.275Z,6.20
2019-04-23T01:45:30.748Z,5.90
2019-04-23T01:48:04.806Z,6.20
2019-04-23T01:53:18.407Z,5.93
2019-04-23T01:55:47.019Z,6.37
2019-04-23T02:00:47.699Z,5.83
2019-04-23T02:03:21.419Z,6.73
2019-04-23T02:05:55.734Z,5.93
2019-04-23T02:08:20.767Z,5.97
2019-04-23T02:13:33.925Z,6.03
2019-04-23T02:15:53.805Z,6.67
2019-04-23T02:18:43.937Z,6.33
2019-04-23T02:20:59.491Z,5.50
2019-04-23T02:29:03.257Z,6.47
2019-04-23T02:34:14.404Z,5.73
2019-04-23T02:36:32.178Z,6.93
2019-04-23T02:41:27.500Z,6.07
2019-04-23T02:44:09.100Z,6.53
2019-04-23T02:46:13.381Z,5.80
2019-04-23T02:49:09.756Z,6.03
2019-04-23T02:59:10.765Z,6.97
2019-04-23T03:01:54.471Z,6.57
2019-04-23T03:06:52.306Z,6.53
2019-04-23T03:09:18.899Z,7.00
2019-04-23T03:11:57.032Z,7.00
2019-04-23T03:17:00.300Z,7.03
2019-04-23T03:23:03.701Z,6.93
2019-04-23T03:27:55.908Z,7.17
2019-04-23T03:43:33.243Z,6.20
2019-04-23T03:46:12.469Z,6.30
2019-04-23T03:48:33.982Z,7.07
2019-04-23T03:50:52.217Z,6.27
2019-04-23T03:56:17.847Z,7.27
2019-04-23T03:58:39.430Z,6.70
2019-04-23T04:01:07.847Z,6.97
2019-04-23T04:04:04.374Z,7.50
2019-04-23T04:06:20.859Z,7.73
2019-04-23T04:08:44.493Z,6.73
2019-04-23T04:16:12.030Z,7.17
2019-04-23T04:24:05.284Z,7.60
2019-04-23T04:26:29.171Z,7.10
2019-04-23T04:28:51.418Z,8.00
2019-04-23T04:31:21.429Z,7.57
2019-04-23T04:36:26.539Z,7.50
2019-04-23T04:38:54.352Z,7.00
2019-04-23T04:44:17.089Z,6.90
2019-04-23T04:59:05.624Z,6.87
2019-04-23T05:01:45.523Z,7.10
2019-04-23T05:04:14.098Z,8.47
2019-04-23T05:06:44.585Z,6.67
2019-04-23T05:09:17.152Z,6.67
2019-04-23T05:11:47.884Z,6.30
2019-04-23T05:14:06.775Z,5.73
2019-04-23T05:16:44.492Z,6.03
2019-04-23T05:21:54.407Z,5.90
2019-04-23T05:27:02.937Z,6.43
2019-04-23T05:29:42.805Z,6.10
2019-04-23T05:32:07.584Z,6.63
2019-04-23T05:34:40.185Z,5.93
2019-04-23T05:37:17.068Z,7.17
2019-04-23T05:39:44.545Z,6.00
2019-04-23T05:42:20.073Z,5.93
2019-04-23T05:44:51.882Z,5.70
2019-04-23T05:47:25.468Z,6.90
2019-04-23T05:52:16.179Z,6.10
2019-04-23T05:57:20.457Z,6.20
2019-04-23T06:02:28.021Z,7.10
2019-04-23T06:04:58.533Z,5.97
2019-04-23T06:09:59.467Z,6.93
2019-04-23T06:12:27.896Z,6.17
2019-04-23T06:14:57.430Z,6.60
2019-04-23T06:17:32.319Z,8.17
2019-04-23T06:20:10.261Z,8.13
2019-04-23T06:22:45.487Z,7.60
2019-04-23T06:25:15.009Z,6.87
2019-04-23T06:27:39.723Z,8.93
2019-04-23T06:30:07.941Z,7.20
2019-04-23T06:32:41.403Z,6.93
2019-04-23T06:35:12.128Z,6.70
2019-04-23T06:38:04.789Z,6.80
2019-04-23T06:40:17.041Z,5.80
2019-04-23T06:42:58.228Z,5.87
2019-04-23T06:45:30.776Z,6.17
2019-04-23T06:48:04.537Z,10.20
2019-04-23T06:50:35.500Z,11.57
2019-04-23T06:52:57.412Z,6.67
2019-04-23T06:55:37.375Z,6.23
2019-04-23T06:58:04.604Z,10.07
2019-04-23T07:00:34.160Z,7.83
2019-04-23T07:03:08.836Z,10.80
2019-04-23T07:06:13.807Z,8.33
2019-04-23T07:08:41.007Z,6.77
2019-04-23T07:11:12.126Z,11.20
2019-04-23T07:13:44.921Z,9.23
2019-04-23T07:15:58.431Z,7.40
2019-04-23T07:18:29.321Z,5.93
2019-04-23T07:21:06.505Z,5.90
2019-04-23T07:23:37.604Z,6.00
2019-04-23T07:26:15.512Z,5.63
2019-04-23T07:28:48.259Z,5.90
2019-04-23T07:31:19.287Z,5.53
2019-04-23T07:33:47.604Z,5.20
2019-04-23T07:36:17.117Z,6.37
2019-04-23T07:42:09.285Z,5.40
2019-04-23T07:44:42.664Z,5.13
2019-04-23T07:50:11.341Z,5.50
2019-04-23T07:52:34.014Z,5.60
2019-04-23T07:57:52.092Z,6.47
2019-04-23T08:00:11.354Z,5.50
2019-04-23T08:02:38.458Z,5.60
2019-04-23T08:07:35.832Z,5.37
2019-04-23T08:10:08.087Z,5.00
2019-04-23T08:12:37.435Z,4.83
2019-04-23T08:15:08.358Z,4.70
2019-04-23T08:17:37.467Z,4.57
2019-04-23T08:20:29.940Z,5.23
2019-04-23T08:22:45.476Z,5.57
2019-04-23T08:25:26.461Z,5.67
2019-04-23T08:28:07.990Z,4.57
2019-04-23T08:30:42.821Z,4.70
2019-04-23T08:35:45.404Z,4.93
2019-04-23T08:40:52.126Z,4.73
2019-04-23T08:43:32.383Z,5.37
2019-04-23T08:46:07.251Z,5.03
2019-04-23T08:48:34.591Z,5.10
2019-04-23T08:51:28.299Z,5.70
2019-04-23T08:53:40.970Z,4.73
2019-04-23T08:56:09.981Z,5.33
2019-04-23T08:58:34.042Z,4.87
2019-04-23T09:01:10.679Z,4.40
2019-04-23T09:03:42.772Z,5.03
2019-04-23T09:08:48.394Z,4.80
2019-04-23T09:16:22.049Z,3.97
2019-04-23T09:18:53.911Z,3.57
2019-04-23T09:21:22.560Z,3.70
2019-04-23T09:23:54.050Z,3.90
2019-04-23T09:26:22.296Z,3.70
2019-04-23T09:29:12.108Z,4.10
2019-04-23T09:34:18.573Z,3.47
2019-04-23T09:40:09.259Z,4.67
2019-04-23T09:43:00.541Z,4.10
2019-04-23T09:46:04.761Z,4.93
2019-04-23T09:48:41.608Z,4.60
2019-04-23T09:51:03.129Z,4.47
2019-04-23T09:53:37.458Z,3.80
2019-04-23T09:56:06.861Z,4.00
2019-04-23T09:58:37.480Z,4.53
2019-04-23T10:01:23.438Z,4.57
2019-04-23T10:03:43.177Z,4.13
2019-04-23T10:06:04.122Z,4.67
2019-04-23T10:08:35.575Z,6.87
2019-04-23T10:10:59.889Z,4.60
2019-04-23T10:13:29.789Z,7.57
2019-04-23T10:16:00.091Z,7.50
2019-04-23T10:18:30.923Z,9.90
2019-04-23T10:21:01.484Z,6.80
2019-04-23T10:23:31.617Z,5.00
2019-04-23T10:26:01.917Z,5.17
2019-04-23T10:28:38.124Z,5.50
2019-04-23T10:31:09.058Z,6.97
2019-04-23T10:33:39.821Z,5.37
2019-04-23T10:36:12.986Z,9.30
2019-04-23T10:38:48.183Z,6.07
2019-04-23T10:41:12.033Z,5.63
2019-04-23T10:43:46.438Z,5.70
2019-04-23T10:47:10.845Z,7.93
2019-04-23T10:50:00.383Z,6.10
2019-04-23T10:57:26.501Z,5.50
2019-04-23T11:02:35.076Z,5.37
2019-04-23T11:05:08.683Z,5.70
2019-04-23T11:07:30.787Z,5.70
2019-04-23T11:15:52.403Z,6.47
2019-04-23T11:17:59.534Z,5.50
2019-04-23T11:25:40.664Z,5.57
2019-04-23T11:27:58.536Z,5.93
2019-04-23T11:30:32.522Z,5.60
2019-04-23T11:38:22.042Z,6.13
2019-04-23T11:43:14.833Z,5.30
2019-04-23T11:48:33.179Z,5.53
2019-04-23T11:51:10.663Z,6.30
2019-04-23T11:53:10.560Z,5.83
2019-04-23T11:55:49.403Z,6.17
2019-04-23T12:01:10.942Z,7.07
2019-04-23T12:03:45.455Z,6.57
2019-04-23T12:06:30.169Z,6.17
2019-04-23T12:09:25.621Z,7.23
2019-04-23T12:11:58.296Z,7.80
2019-04-23T12:17:24.934Z,6.67
2019-04-23T12:22:25.036Z,7.53
2019-04-23T12:29:54.320Z,7.03
2019-04-23T12:32:48.428Z,6.70
2019-04-23T12:37:51.962Z,7.33
2019-04-23T12:40:37.944Z,6.20
2019-04-23T12:45:29.025Z,6.93
2019-04-23T12:47:56.395Z,7.53
2019-04-23T13:02:59.332Z,7.47
2019-04-23T13:05:31.217Z,9.30
2019-04-23T13:08:01.963Z,7.23
2019-04-23T13:10:33.648Z,7.70
2019-04-23T13:15:34.722Z,7.17
2019-04-23T13:25:57.159Z,7.60
2019-04-23T13:28:35.341Z,7.60
2019-04-23T13:31:06.618Z,7.63
2019-04-23T13:41:17.178Z,7.60
2019-04-23T13:43:48.394Z,7.50
2019-04-23T13:46:14.128Z,6.93
2019-04-23T13:48:44.961Z,7.73
2019-04-23T13:51:21.197Z,6.80
2019-04-23T13:56:25.182Z,8.60
2019-04-23T13:58:55.037Z,7.20
2019-04-23T14:03:54.477Z,8.17
2019-04-23T14:06:33.550Z,7.37
2019-04-23T14:09:03.194Z,8.27
2019-04-23T14:11:40.375Z,7.70
2019-04-23T14:14:34.509Z,7.17
2019-04-23T14:16:39.551Z,6.90
2019-04-23T14:19:04.420Z,7.30
2019-04-23T14:21:42.420Z,7.07
2019-04-23T14:24:16.720Z,8.67
2019-04-23T14:26:38.256Z,9.50
2019-04-23T14:31:45.636Z,7.73
2019-04-23T14:34:20.872Z,7.90
2019-04-23T14:36:55.547Z,9.00
2019-04-23T14:41:56.406Z,6.90
2019-04-23T14:44:56.423Z,8.40
2019-04-23T14:47:07.460Z,7.53
2019-04-23T14:49:45.524Z,7.03
2019-04-23T14:52:12.083Z,6.80
2019-04-23T14:55:27.956Z,6.87
2019-04-23T14:57:24.762Z,6.50
2019-04-23T14:59:55.308Z,6.70
2019-04-23T15:02:39.890Z,6.50
2019-04-23T15:05:09.584Z,7.07
2019-04-23T15:07:34.640Z,7.20
2019-04-23T15:10:08.606Z,7.03
2019-04-23T15:12:42.788Z,6.90
2019-04-23T15:15:14.357Z,7.97
2019-04-23T15:17:40.193Z,7.53
2019-04-23T15:20:22.884Z,7.10
2019-04-23T15:27:21.195Z,7.73
2019-04-23T15:30:17.582Z,8.23
2019-04-23T15:33:07.557Z,8.53
2019-04-23T15:35:31.618Z,8.67
2019-04-23T15:40:25.265Z,8.50
2019-04-23T15:43:02.729Z,8.63
2019-04-23T15:45:28.570Z,8.77
2019-04-23T15:48:03.318Z,8.70
2019-04-23T15:53:03.207Z,8.27
2019-04-23T15:55:33.792Z,8.00
2019-04-23T15:58:15.725Z,8.63
2019-04-23T16:00:42.904Z,8.37
2019-04-23T16:02:41.604Z,9.10
2019-04-23T16:05:12.460Z,9.23
2019-04-23T16:08:01.628Z,9.10
2019-04-23T16:11:10.432Z,8.67
2019-04-23T16:13:24.283Z,9.70
2019-04-23T16:15:54.337Z,8.67
2019-04-23T16:18:37.373Z,9.30
2019-04-23T16:21:04.955Z,9.73
2019-04-23T16:23:26.415Z,9.50
2019-04-23T16:26:12.458Z,9.43
2019-04-23T16:28:52.104Z,10.25
2019-04-23T16:31:15.468Z,9.63
2019-04-23T16:33:51.134Z,9.27
2019-04-23T16:36:19.663Z,8.43
2019-04-23T16:38:56.548Z,9.60
2019-04-23T16:51:29.623Z,9.00
2019-04-23T16:54:01.677Z,8.90
2019-04-23T16:59:08.699Z,7.53
2019-04-23T17:01:25.006Z,8.03
2019-04-23T17:04:08.202Z,7.47
2019-04-23T17:11:34.316Z,7.57
2019-04-23T17:21:38.558Z,7.70
2019-04-23T17:24:20.608Z,11.70
2019-04-23T17:26:44.822Z,6.57
2019-04-23T17:31:45.524Z,7.97
2019-04-23T17:34:30.895Z,8.53
2019-04-23T17:37:17.701Z,7.00
2019-04-23T17:40:15.423Z,8.07
2019-04-23T17:42:49.624Z,7.70
2019-04-23T17:50:43.597Z,7.60
2019-04-23T17:53:19.490Z,8.40
2019-04-23T17:56:01.113Z,9.80
2019-04-23T17:58:25.258Z,7.07
2019-04-23T18:01:02.541Z,9.13
2019-04-23T18:03:25.707Z,8.60
2019-04-23T18:06:12.539Z,7.63
2019-04-23T18:08:29.089Z,7.33
2019-04-23T18:11:05.949Z,7.37
2019-04-23T18:13:28.259Z,7.60
2019-04-23T18:16:02.403Z,7.80
2019-04-23T18:18:38.633Z,7.20
2019-04-23T18:21:32.254Z,7.07
2019-04-23T18:24:27.500Z,7.20
2019-04-23T18:27:00.034Z,6.97
2019-04-23T18:29:44.004Z,7.37
2019-04-23T18:35:11.989Z,7.90
2019-04-23T18:37:22.586Z,7.73
2019-04-23T18:39:58.923Z,8.37
2019-04-23T18:42:25.749Z,7.33
2019-04-23T18:44:48.201Z,7.80
2019-04-23T18:49:55.049Z,8.07
2019-04-23T18:52:32.900Z,8.37
2019-04-23T18:54:55.688Z,7.93
2019-04-23T18:57:34.399Z,7.70
2019-04-23T19:00:20.286Z,12.87
2019-04-23T19:08:07.618Z,8.80
2019-04-23T19:10:53.793Z,7.87
2019-04-23T19:15:59.734Z,8.40
2019-04-23T19:18:31.957Z,8.77
2019-04-23T19:23:32.807Z,8.47
2019-04-23T19:25:54.918Z,8.40
2019-04-23T19:28:44.470Z,9.60
2019-04-23T19:31:26.097Z,9.13
2019-04-23T19:34:17.297Z,14.57
2019-04-23T19:36:51.288Z,10.67
2019-04-23T19:39:11.545Z,9.17
2019-04-23T19:41:55.435Z,9.10
2019-04-23T19:44:10.344Z,9.30
2019-04-23T19:49:19.663Z,13.13
2019-04-23T19:51:51.151Z,10.60
2019-04-23T19:54:25.205Z,10.23
2019-04-23T19:59:25.604Z,9.90
2019-04-23T20:01:55.277Z,11.00
2019-04-23T20:04:21.747Z,10.60
2019-04-23T20:12:04.459Z,10.00
2019-04-23T20:14:37.772Z,11.87
2019-04-23T20:17:21.406Z,9.67
2019-04-23T20:19:37.372Z,9.87
2019-04-23T20:24:41.828Z,27.03
2019-04-23T20:27:11.840Z,9.00
2019-04-23T20:30:26.490Z,21.37
2019-04-23T20:35:07.250Z,10.73
2019-04-23T20:40:08.657Z,13.47
2019-04-23T20:42:39.025Z,9.27
2019-04-23T20:45:28.761Z,8.67
2019-04-23T20:47:50.324Z,8.90
2019-04-23T20:50:03.722Z,10.37
2019-04-23T20:52:46.903Z,9.30
2019-04-23T20:55:20.200Z,11.43
2019-04-23T20:58:03.672Z,15.80
2019-04-23T21:00:57.136Z,17.47
2019-04-23T21:03:37.570Z,12.27
2019-04-23T21:05:50.006Z,10.93
2019-04-23T21:08:43.506Z,12.37
2019-04-23T21:10:48.915Z,15.03
2019-04-23T21:13:43.936Z,11.93
2019-04-23T21:16:15.259Z,9.77
2019-04-23T21:20:56.272Z,10.10
2019-04-23T21:23:36.119Z,11.70
2019-04-23T21:25:57.039Z,9.80
2019-04-23T21:28:44.094Z,8.20
2019-04-23T21:31:22.909Z,9.30
2019-04-23T21:33:59.377Z,8.67
2019-04-23T21:39:34.952Z,9.23
2019-04-23T21:42:22.481Z,8.70
2019-04-23T21:47:14.577Z,8.30
2019-04-23T21:49:59.486Z,8.47
2019-04-23T21:52:29.157Z,7.87
2019-04-23T21:54:57.169Z,9.17
2019-04-23T21:57:35.406Z,7.67
2019-04-23T22:02:36.101Z,7.80
2019-04-23T22:05:01.175Z,8.73
2019-04-23T22:07:47.745Z,8.80
2019-04-23T22:10:05.941Z,7.57
2019-04-23T22:12:48.747Z,7.20
2019-04-23T22:15:07.324Z,6.80
2019-04-23T22:17:37.509Z,8.77
2019-04-23T22:25:11.535Z,7.70
2019-04-23T22:27:52.914Z,7.23
2019-04-23T22:30:16.404Z,7.27
2019-04-23T22:32:56.116Z,8.00
2019-04-23T22:35:10.528Z,7.83
2019-04-23T22:38:02.282Z,7.90
2019-04-23T22:40:15.082Z,7.17
2019-04-23T22:43:13.233Z,7.03
2019-04-23T22:45:45.272Z,7.20
2019-04-23T22:47:54.980Z,6.70
2019-04-23T22:50:48.517Z,7.13
2019-04-23T22:55:27.628Z,7.03
2019-04-23T22:58:08.191Z,6.67
2019-04-23T23:00:27.950Z,6.53
2019-04-23T23:06:08.259Z,6.77
2019-04-23T23:08:30.729Z,7.63
2019-04-23T23:10:56.947Z,8.97
2019-04-23T23:13:35.353Z,11.10
2019-04-23T23:16:01.528Z,7.37
2019-04-23T23:18:35.293Z,7.27
2019-04-23T23:21:07.988Z,9.33
2019-04-23T23:23:32.615Z,7.20
2019-04-23T23:26:11.302Z,6.57
2019-04-23T23:28:38.085Z,7.30
2019-04-23T23:33:45.458Z,7.27
2019-04-23T23:38:52.681Z,6.60
2019-04-23T23:41:26.585Z,7.53
2019-04-23T23:46:20.593Z,7.33
2019-04-23T23:48:48.388Z,8.00
2019-04-23T23:56:15.816Z,7.17
2019-04-23T23:58:58.596Z,6.90
